sensor_id;sensor_type;location;lat;lon;timestamp;temperature;humidity
40600;DHT22;26309;50.924;4.754;2023-12-22T00:01:14;9.30;99.90
40600;DHT22;26309;50.924;4.754;2023-12-22T00:03:43;9.30;99.90
40600;DHT22;26309;50.924;4.754;2023-12-22T00:06:12;9.40;99.90
40600;DHT22;26309;50.924;4.754;2023-12-22T00:08:38;9.40;99.90
40600;DHT22;26309;50.924;4.754;2023-12-22T00:11:05;9.30;99.90
40600;DHT22;26309;50.924;4.754;2023-12-22T00:13:30;9.20;99.90
40600;DHT22;26309;50.924;4.754;2023-12-22T00:15:59;9.20;99.90
40600;DHT22;26309;50.924;4.754;2023-12-22T00:18:25;9.30;99.90
40600;DHT22;26309;50.924;4.754;2023-12-22T00:20:50;9.30;99.90
40600;DHT22;26309;50.924;4.754;2023-12-22T00:23:16;9.30;99.90
40600;DHT22;26309;50.924;4.754;2023-12-22T00:25:42;9.50;99.90
40600;DHT22;26309;50.924;4.754;2023-12-22T00:28:08;9.40;99.90
40600;DHT22;26309;50.924;4.754;2023-12-22T00:30:34;9.40;99.90
40600;DHT22;26309;50.924;4.754;2023-12-22T00:33:00;9.40;99.90
40600;DHT22;26309;50.924;4.754;2023-12-22T00:35:25;9.50;99.90
40600;DHT22;26309;50.924;4.754;2023-12-22T00:37:51;9.60;99.90
40600;DHT22;26309;50.924;4.754;2023-12-22T00:40:18;9.60;99.90
40600;DHT22;26309;50.924;4.754;2023-12-22T00:42:44;9.50;99.90
40600;DHT22;26309;50.924;4.754;2023-12-22T00:45:10;9.60;99.90
40600;DHT22;26309;50.924;4.754;2023-12-22T00:47:36;9.60;99.90
40600;DHT22;26309;50.924;4.754;2023-12-22T00:50:03;9.60;99.90
40600;DHT22;26309;50.924;4.754;2023-12-22T00:52:30;9.60;99.90
40600;DHT22;26309;50.924;4.754;2023-12-22T00:54:56;9.60;99.90
40600;DHT22;26309;50.924;4.754;2023-12-22T00:57:22;9.60;99.90
40600;DHT22;26309;50.924;4.754;2023-12-22T00:59:48;9.50;99.90
40600;DHT22;26309;50.924;4.754;2023-12-22T01:02:17;9.70;99.90
40600;DHT22;26309;50.924;4.754;2023-12-22T01:04:44;9.60;99.90
40600;DHT22;26309;50.924;4.754;2023-12-22T01:07:11;9.70;99.90
40600;DHT22;26309;50.924;4.754;2023-12-22T01:09:37;9.60;99.90
40600;DHT22;26309;50.924;4.754;2023-12-22T01:12:06;9.70;99.90
40600;DHT22;26309;50.924;4.754;2023-12-22T01:14:33;9.70;99.90
40600;DHT22;26309;50.924;4.754;2023-12-22T01:16:59;9.80;99.90
40600;DHT22;26309;50.924;4.754;2023-12-22T01:19:26;9.80;99.90
40600;DHT22;26309;50.924;4.754;2023-12-22T01:21:53;9.80;99.90
40600;DHT22;26309;50.924;4.754;2023-12-22T01:24:19;9.80;99.90
40600;DHT22;26309;50.924;4.754;2023-12-22T01:26:45;9.70;99.90
40600;DHT22;26309;50.924;4.754;2023-12-22T01:29:11;9.70;99.90
40600;DHT22;26309;50.924;4.754;2023-12-22T01:31:36;9.60;99.90
40600;DHT22;26309;50.924;4.754;2023-12-22T01:34:02;9.50;99.90
40600;DHT22;26309;50.924;4.754;2023-12-22T01:36:28;9.40;99.90
40600;DHT22;26309;50.924;4.754;2023-12-22T01:38:54;9.30;99.90
40600;DHT22;26309;50.924;4.754;2023-12-22T01:41:19;9.30;99.90
40600;DHT22;26309;50.924;4.754;2023-12-22T01:43:45;9.30;99.90
40600;DHT22;26309;50.924;4.754;2023-12-22T01:46:12;9.10;99.90
40600;DHT22;26309;50.924;4.754;2023-12-22T01:48:38;9.10;99.90
40600;DHT22;26309;50.924;4.754;2023-12-22T01:51:06;9.10;99.90
40600;DHT22;26309;50.924;4.754;2023-12-22T01:53:32;9.10;99.90
40600;DHT22;26309;50.924;4.754;2023-12-22T01:56:00;9.10;99.90
40600;DHT22;26309;50.924;4.754;2023-12-22T01:58:27;9.20;99.90
40600;DHT22;26309;50.924;4.754;2023-12-22T02:00:54;9.20;99.90
40600;DHT22;26309;50.924;4.754;2023-12-22T02:03:21;9.30;99.90
40600;DHT22;26309;50.924;4.754;2023-12-22T02:05:47;9.30;99.90
40600;DHT22;26309;50.924;4.754;2023-12-22T02:08:13;9.40;99.90
40600;DHT22;26309;50.924;4.754;2023-12-22T02:10:39;9.40;99.90
40600;DHT22;26309;50.924;4.754;2023-12-22T02:13:05;9.50;99.90
40600;DHT22;26309;50.924;4.754;2023-12-22T02:15:32;9.50;99.90
40600;DHT22;26309;50.924;4.754;2023-12-22T02:20:27;9.50;99.90
40600;DHT22;26309;50.924;4.754;2023-12-22T02:22:53;9.50;99.90
40600;DHT22;26309;50.924;4.754;2023-12-22T02:25:20;9.50;99.90
40600;DHT22;26309;50.924;4.754;2023-12-22T02:28:02;9.60;99.90
40600;DHT22;26309;50.924;4.754;2023-12-22T02:33:15;9.60;99.90
40600;DHT22;26309;50.924;4.754;2023-12-22T02:35:41;9.70;99.90
40600;DHT22;26309;50.924;4.754;2023-12-22T02:38:11;9.70;99.90
40600;DHT22;26309;50.924;4.754;2023-12-22T02:40:38;9.60;99.90
40600;DHT22;26309;50.924;4.754;2023-12-22T02:43:06;9.70;99.90
40600;DHT22;26309;50.924;4.754;2023-12-22T02:45:32;9.80;99.90
40600;DHT22;26309;50.924;4.754;2023-12-22T02:47:58;9.80;99.90
40600;DHT22;26309;50.924;4.754;2023-12-22T02:50:24;9.70;99.90
40600;DHT22;26309;50.924;4.754;2023-12-22T02:52:50;9.70;99.90
40600;DHT22;26309;50.924;4.754;2023-12-22T02:55:16;9.80;99.90
40600;DHT22;26309;50.924;4.754;2023-12-22T02:57:42;9.80;99.90
40600;DHT22;26309;50.924;4.754;2023-12-22T03:00:10;9.90;99.90
40600;DHT22;26309;50.924;4.754;2023-12-22T03:02:36;9.90;99.90
40600;DHT22;26309;50.924;4.754;2023-12-22T03:05:02;9.80;99.90
40600;DHT22;26309;50.924;4.754;2023-12-22T03:07:28;9.80;99.90
40600;DHT22;26309;50.924;4.754;2023-12-22T03:09:54;9.80;99.90
40600;DHT22;26309;50.924;4.754;2023-12-22T03:12:20;9.80;99.90
40600;DHT22;26309;50.924;4.754;2023-12-22T03:14:45;9.90;99.90
40600;DHT22;26309;50.924;4.754;2023-12-22T03:17:11;9.90;99.90
40600;DHT22;26309;50.924;4.754;2023-12-22T03:19:37;9.90;99.90
40600;DHT22;26309;50.924;4.754;2023-12-22T03:22:03;9.90;99.90
40600;DHT22;26309;50.924;4.754;2023-12-22T03:24:29;9.90;99.90
40600;DHT22;26309;50.924;4.754;2023-12-22T03:26:55;9.90;99.90
40600;DHT22;26309;50.924;4.754;2023-12-22T03:29:21;9.90;99.90
40600;DHT22;26309;50.924;4.754;2023-12-22T03:31:47;9.90;99.90
40600;DHT22;26309;50.924;4.754;2023-12-22T03:34:13;10.00;99.90
40600;DHT22;26309;50.924;4.754;2023-12-22T03:36:39;9.90;99.90
40600;DHT22;26309;50.924;4.754;2023-12-22T03:39:05;9.90;99.90
40600;DHT22;26309;50.924;4.754;2023-12-22T03:41:31;9.90;99.90
40600;DHT22;26309;50.924;4.754;2023-12-22T03:43:57;9.90;99.90
40600;DHT22;26309;50.924;4.754;2023-12-22T03:46:24;9.80;99.90
40600;DHT22;26309;50.924;4.754;2023-12-22T03:48:53;9.80;99.90
40600;DHT22;26309;50.924;4.754;2023-12-22T03:51:19;9.80;99.90
40600;DHT22;26309;50.924;4.754;2023-12-22T03:53:44;9.90;99.90
40600;DHT22;26309;50.924;4.754;2023-12-22T03:56:10;9.90;99.90
40600;DHT22;26309;50.924;4.754;2023-12-22T03:58:37;9.80;99.90
40600;DHT22;26309;50.924;4.754;2023-12-22T04:01:03;9.80;99.90
40600;DHT22;26309;50.924;4.754;2023-12-22T04:03:29;9.90;99.90
40600;DHT22;26309;50.924;4.754;2023-12-22T04:05:55;9.90;99.90
40600;DHT22;26309;50.924;4.754;2023-12-22T04:08:21;10.00;99.90
40600;DHT22;26309;50.924;4.754;2023-12-22T04:10:47;10.00;99.90
40600;DHT22;26309;50.924;4.754;2023-12-22T04:13:13;9.90;99.90
40600;DHT22;26309;50.924;4.754;2023-12-22T04:15:39;9.80;99.90
40600;DHT22;26309;50.924;4.754;2023-12-22T04:18:05;9.90;99.90
40600;DHT22;26309;50.924;4.754;2023-12-22T04:20:31;9.80;99.90
40600;DHT22;26309;50.924;4.754;2023-12-22T04:22:57;9.80;99.90
40600;DHT22;26309;50.924;4.754;2023-12-22T04:25:23;9.80;99.90
40600;DHT22;26309;50.924;4.754;2023-12-22T04:27:51;9.80;99.90
40600;DHT22;26309;50.924;4.754;2023-12-22T04:30:17;9.80;99.90
40600;DHT22;26309;50.924;4.754;2023-12-22T04:32:42;9.80;99.90
40600;DHT22;26309;50.924;4.754;2023-12-22T04:35:08;9.90;99.90
40600;DHT22;26309;50.924;4.754;2023-12-22T04:37:35;9.90;99.90
40600;DHT22;26309;50.924;4.754;2023-12-22T04:40:00;9.80;99.90
40600;DHT22;26309;50.924;4.754;2023-12-22T04:42:26;9.80;99.90
40600;DHT22;26309;50.924;4.754;2023-12-22T04:44:52;9.80;99.90
40600;DHT22;26309;50.924;4.754;2023-12-22T04:47:18;9.90;99.90
40600;DHT22;26309;50.924;4.754;2023-12-22T04:49:44;10.00;99.90
40600;DHT22;26309;50.924;4.754;2023-12-22T04:52:11;9.90;99.90
40600;DHT22;26309;50.924;4.754;2023-12-22T04:54:37;9.90;99.90
40600;DHT22;26309;50.924;4.754;2023-12-22T04:57:04;9.90;99.90
40600;DHT22;26309;50.924;4.754;2023-12-22T04:59:30;9.90;99.90
40600;DHT22;26309;50.924;4.754;2023-12-22T05:01:55;9.90;99.90
40600;DHT22;26309;50.924;4.754;2023-12-22T05:04:21;9.80;99.90
40600;DHT22;26309;50.924;4.754;2023-12-22T05:06:48;9.70;99.90
40600;DHT22;26309;50.924;4.754;2023-12-22T05:09:15;9.70;99.90
40600;DHT22;26309;50.924;4.754;2023-12-22T05:11:41;9.90;99.90
40600;DHT22;26309;50.924;4.754;2023-12-22T05:14:07;9.90;99.90
40600;DHT22;26309;50.924;4.754;2023-12-22T05:16:33;9.90;99.90
40600;DHT22;26309;50.924;4.754;2023-12-22T05:18:59;9.90;99.90
40600;DHT22;26309;50.924;4.754;2023-12-22T05:21:25;9.80;99.90
40600;DHT22;26309;50.924;4.754;2023-12-22T05:23:51;9.70;99.90
40600;DHT22;26309;50.924;4.754;2023-12-22T05:26:18;9.90;99.90
40600;DHT22;26309;50.924;4.754;2023-12-22T05:28:44;9.90;99.90
40600;DHT22;26309;50.924;4.754;2023-12-22T05:31:10;9.90;99.90
40600;DHT22;26309;50.924;4.754;2023-12-22T05:33:35;9.90;99.90
40600;DHT22;26309;50.924;4.754;2023-12-22T05:36:01;9.80;99.90
40600;DHT22;26309;50.924;4.754;2023-12-22T05:38:28;9.80;99.90
40600;DHT22;26309;50.924;4.754;2023-12-22T05:40:53;9.80;99.90
40600;DHT22;26309;50.924;4.754;2023-12-22T05:43:19;9.90;99.90
40600;DHT22;26309;50.924;4.754;2023-12-22T05:45:45;9.80;99.90
40600;DHT22;26309;50.924;4.754;2023-12-22T05:48:11;9.70;99.90
40600;DHT22;26309;50.924;4.754;2023-12-22T05:50:37;9.70;99.90
40600;DHT22;26309;50.924;4.754;2023-12-22T05:53:03;9.80;99.90
40600;DHT22;26309;50.924;4.754;2023-12-22T05:55:28;9.80;99.90
40600;DHT22;26309;50.924;4.754;2023-12-22T05:57:55;9.90;99.90
40600;DHT22;26309;50.924;4.754;2023-12-22T06:00:21;10.00;99.90
40600;DHT22;26309;50.924;4.754;2023-12-22T06:02:47;10.00;99.90
40600;DHT22;26309;50.924;4.754;2023-12-22T06:05:13;10.00;99.90
40600;DHT22;26309;50.924;4.754;2023-12-22T06:07:40;10.00;99.90
40600;DHT22;26309;50.924;4.754;2023-12-22T06:10:07;10.10;99.90
40600;DHT22;26309;50.924;4.754;2023-12-22T06:12:35;10.10;99.90
40600;DHT22;26309;50.924;4.754;2023-12-22T06:15:01;10.20;99.90
40600;DHT22;26309;50.924;4.754;2023-12-22T06:17:27;10.30;99.90
40600;DHT22;26309;50.924;4.754;2023-12-22T06:19:53;10.30;99.90
40600;DHT22;26309;50.924;4.754;2023-12-22T06:22:19;10.20;99.90
40600;DHT22;26309;50.924;4.754;2023-12-22T06:24:46;10.10;99.90
40600;DHT22;26309;50.924;4.754;2023-12-22T06:27:16;10.20;99.90
40600;DHT22;26309;50.924;4.754;2023-12-22T06:29:45;10.20;99.90
40600;DHT22;26309;50.924;4.754;2023-12-22T06:32:11;10.20;99.90
40600;DHT22;26309;50.924;4.754;2023-12-22T06:34:37;10.10;99.90
40600;DHT22;26309;50.924;4.754;2023-12-22T06:37:03;10.10;99.90
40600;DHT22;26309;50.924;4.754;2023-12-22T06:39:29;10.20;99.90
40600;DHT22;26309;50.924;4.754;2023-12-22T06:41:55;10.20;99.90
40600;DHT22;26309;50.924;4.754;2023-12-22T06:44:21;10.20;99.90
40600;DHT22;26309;50.924;4.754;2023-12-22T06:46:46;10.10;99.90
40600;DHT22;26309;50.924;4.754;2023-12-22T06:49:12;10.00;99.90
40600;DHT22;26309;50.924;4.754;2023-12-22T06:51:38;9.90;99.90
40600;DHT22;26309;50.924;4.754;2023-12-22T06:54:04;9.90;99.90
40600;DHT22;26309;50.924;4.754;2023-12-22T06:56:33;9.90;99.90
40600;DHT22;26309;50.924;4.754;2023-12-22T06:58:59;9.80;99.90
40600;DHT22;26309;50.924;4.754;2023-12-22T07:01:30;9.70;99.90
40600;DHT22;26309;50.924;4.754;2023-12-22T07:04:00;9.70;99.90
40600;DHT22;26309;50.924;4.754;2023-12-22T07:06:31;9.80;99.90
40600;DHT22;26309;50.924;4.754;2023-12-22T07:14:11;9.60;99.90
40600;DHT22;26309;50.924;4.754;2023-12-22T07:16:37;9.60;99.90
40600;DHT22;26309;50.924;4.754;2023-12-22T07:19:04;9.60;99.90
40600;DHT22;26309;50.924;4.754;2023-12-22T07:21:30;9.60;99.90
40600;DHT22;26309;50.924;4.754;2023-12-22T07:23:56;9.60;99.90
40600;DHT22;26309;50.924;4.754;2023-12-22T07:26:24;9.50;99.90
40600;DHT22;26309;50.924;4.754;2023-12-22T07:28:53;9.60;99.90
40600;DHT22;26309;50.924;4.754;2023-12-22T07:31:19;9.60;99.90
40600;DHT22;26309;50.924;4.754;2023-12-22T07:33:44;9.60;99.90
40600;DHT22;26309;50.924;4.754;2023-12-22T07:36:10;9.40;99.90
40600;DHT22;26309;50.924;4.754;2023-12-22T07:38:37;9.40;99.90
40600;DHT22;26309;50.924;4.754;2023-12-22T07:41:05;9.50;99.90
40600;DHT22;26309;50.924;4.754;2023-12-22T07:43:31;9.60;99.90
40600;DHT22;26309;50.924;4.754;2023-12-22T07:45:57;9.60;99.90
40600;DHT22;26309;50.924;4.754;2023-12-22T07:48:23;9.70;99.90
40600;DHT22;26309;50.924;4.754;2023-12-22T07:50:49;9.70;99.90
40600;DHT22;26309;50.924;4.754;2023-12-22T07:53:15;9.70;99.90
40600;DHT22;26309;50.924;4.754;2023-12-22T07:55:42;9.80;99.90
40600;DHT22;26309;50.924;4.754;2023-12-22T07:58:08;9.70;99.90
40600;DHT22;26309;50.924;4.754;2023-12-22T08:00:34;9.60;99.90
40600;DHT22;26309;50.924;4.754;2023-12-22T08:03:00;9.60;99.90
40600;DHT22;26309;50.924;4.754;2023-12-22T08:05:26;9.60;99.90
40600;DHT22;26309;50.924;4.754;2023-12-22T08:07:52;9.70;99.90
40600;DHT22;26309;50.924;4.754;2023-12-22T08:10:18;9.70;99.90
40600;DHT22;26309;50.924;4.754;2023-12-22T08:12:44;9.70;99.90
40600;DHT22;26309;50.924;4.754;2023-12-22T08:15:10;9.80;99.90
40600;DHT22;26309;50.924;4.754;2023-12-22T08:17:36;9.80;99.90
40600;DHT22;26309;50.924;4.754;2023-12-22T08:20:04;9.80;99.90
40600;DHT22;26309;50.924;4.754;2023-12-22T08:22:32;9.90;99.90
40600;DHT22;26309;50.924;4.754;2023-12-22T08:24:58;9.80;99.90
40600;DHT22;26309;50.924;4.754;2023-12-22T08:27:24;9.80;99.90
40600;DHT22;26309;50.924;4.754;2023-12-22T08:29:50;9.80;99.90
40600;DHT22;26309;50.924;4.754;2023-12-22T08:32:15;9.70;99.90
40600;DHT22;26309;50.924;4.754;2023-12-22T08:34:41;9.80;99.90
40600;DHT22;26309;50.924;4.754;2023-12-22T08:37:07;9.90;99.90
40600;DHT22;26309;50.924;4.754;2023-12-22T08:39:33;9.90;99.90
40600;DHT22;26309;50.924;4.754;2023-12-22T08:41:58;9.90;99.90
40600;DHT22;26309;50.924;4.754;2023-12-22T08:44:24;10.00;99.90
40600;DHT22;26309;50.924;4.754;2023-12-22T08:46:50;10.00;99.90
40600;DHT22;26309;50.924;4.754;2023-12-22T08:49:16;10.00;99.90
40600;DHT22;26309;50.924;4.754;2023-12-22T08:51:42;10.10;99.90
40600;DHT22;26309;50.924;4.754;2023-12-22T08:54:08;10.00;99.90
40600;DHT22;26309;50.924;4.754;2023-12-22T08:56:34;10.00;99.90
40600;DHT22;26309;50.924;4.754;2023-12-22T08:59:01;10.00;99.90
40600;DHT22;26309;50.924;4.754;2023-12-22T09:01:26;10.00;99.90
40600;DHT22;26309;50.924;4.754;2023-12-22T09:03:52;10.10;99.90
40600;DHT22;26309;50.924;4.754;2023-12-22T09:06:22;10.10;99.90
40600;DHT22;26309;50.924;4.754;2023-12-22T09:08:48;10.10;99.90
40600;DHT22;26309;50.924;4.754;2023-12-22T09:11:20;10.10;99.90
40600;DHT22;26309;50.924;4.754;2023-12-22T09:13:47;10.20;99.90
40600;DHT22;26309;50.924;4.754;2023-12-22T09:16:13;10.20;99.90
40600;DHT22;26309;50.924;4.754;2023-12-22T09:18:41;10.20;99.90
40600;DHT22;26309;50.924;4.754;2023-12-22T09:21:08;10.10;99.90
40600;DHT22;26309;50.924;4.754;2023-12-22T09:23:34;10.10;99.90
40600;DHT22;26309;50.924;4.754;2023-12-22T09:25:59;10.20;99.90
40600;DHT22;26309;50.924;4.754;2023-12-22T09:28:25;10.30;99.90
40600;DHT22;26309;50.924;4.754;2023-12-22T09:30:51;10.30;99.90
40600;DHT22;26309;50.924;4.754;2023-12-22T09:33:16;10.30;99.90
40600;DHT22;26309;50.924;4.754;2023-12-22T09:35:42;10.30;99.90
40600;DHT22;26309;50.924;4.754;2023-12-22T09:38:09;10.30;99.90
40600;DHT22;26309;50.924;4.754;2023-12-22T09:40:35;10.40;99.90
40600;DHT22;26309;50.924;4.754;2023-12-22T09:43:06;10.30;99.90
40600;DHT22;26309;50.924;4.754;2023-12-22T09:45:32;10.40;99.90
40600;DHT22;26309;50.924;4.754;2023-12-22T09:47:59;10.30;99.90
40600;DHT22;26309;50.924;4.754;2023-12-22T09:50:30;10.30;99.90
40600;DHT22;26309;50.924;4.754;2023-12-22T09:52:56;10.30;99.90
40600;DHT22;26309;50.924;4.754;2023-12-22T09:55:35;10.40;99.90
40600;DHT22;26309;50.924;4.754;2023-12-22T09:58:01;10.30;99.90
40600;DHT22;26309;50.924;4.754;2023-12-22T10:00:29;10.30;99.90
40600;DHT22;26309;50.924;4.754;2023-12-22T10:02:57;10.30;99.90
40600;DHT22;26309;50.924;4.754;2023-12-22T10:05:22;10.30;99.90
40600;DHT22;26309;50.924;4.754;2023-12-22T10:07:49;10.30;99.90
40600;DHT22;26309;50.924;4.754;2023-12-22T10:10:16;10.30;99.90
40600;DHT22;26309;50.924;4.754;2023-12-22T10:12:44;10.30;99.90
40600;DHT22;26309;50.924;4.754;2023-12-22T10:15:12;10.40;99.90
40600;DHT22;26309;50.924;4.754;2023-12-22T10:17:38;10.50;99.90
40600;DHT22;26309;50.924;4.754;2023-12-22T10:20:05;10.50;99.90
40600;DHT22;26309;50.924;4.754;2023-12-22T10:22:31;10.60;99.90
40600;DHT22;26309;50.924;4.754;2023-12-22T10:24:57;10.60;99.90
40600;DHT22;26309;50.924;4.754;2023-12-22T10:27:23;10.60;99.90
40600;DHT22;26309;50.924;4.754;2023-12-22T10:29:50;10.50;99.90
40600;DHT22;26309;50.924;4.754;2023-12-22T10:32:16;10.50;99.90
40600;DHT22;26309;50.924;4.754;2023-12-22T10:34:43;10.60;99.90
40600;DHT22;26309;50.924;4.754;2023-12-22T10:37:10;10.70;99.90
40600;DHT22;26309;50.924;4.754;2023-12-22T10:39:37;10.70;99.90
40600;DHT22;26309;50.924;4.754;2023-12-22T10:42:03;10.70;99.90
40600;DHT22;26309;50.924;4.754;2023-12-22T10:44:29;10.70;99.90
40600;DHT22;26309;50.924;4.754;2023-12-22T10:46:58;10.70;99.90
40600;DHT22;26309;50.924;4.754;2023-12-22T10:49:25;10.80;99.90
40600;DHT22;26309;50.924;4.754;2023-12-22T10:51:52;10.80;99.90
40600;DHT22;26309;50.924;4.754;2023-12-22T10:54:18;10.90;99.90
40600;DHT22;26309;50.924;4.754;2023-12-22T10:56:44;11.00;99.90
40600;DHT22;26309;50.924;4.754;2023-12-22T10:59:10;11.10;99.90
40600;DHT22;26309;50.924;4.754;2023-12-22T11:01:37;11.10;99.90
40600;DHT22;26309;50.924;4.754;2023-12-22T11:04:07;11.20;99.90
40600;DHT22;26309;50.924;4.754;2023-12-22T11:06:36;11.20;99.90
40600;DHT22;26309;50.924;4.754;2023-12-22T11:09:09;11.20;99.90
40600;DHT22;26309;50.924;4.754;2023-12-22T11:11:36;11.10;99.90
40600;DHT22;26309;50.924;4.754;2023-12-22T11:14:05;11.20;99.90
40600;DHT22;26309;50.924;4.754;2023-12-22T11:16:33;11.10;99.90
40600;DHT22;26309;50.924;4.754;2023-12-22T11:19:02;10.90;99.90
40600;DHT22;26309;50.924;4.754;2023-12-22T11:21:29;10.90;99.90
40600;DHT22;26309;50.924;4.754;2023-12-22T11:23:56;11.00;99.90
40600;DHT22;26309;50.924;4.754;2023-12-22T11:26:24;11.00;99.90
40600;DHT22;26309;50.924;4.754;2023-12-22T11:28:50;11.10;99.90
40600;DHT22;26309;50.924;4.754;2023-12-22T11:31:20;11.00;99.90
40600;DHT22;26309;50.924;4.754;2023-12-22T11:33:50;10.90;99.90
40600;DHT22;26309;50.924;4.754;2023-12-22T11:36:17;10.90;99.90
40600;DHT22;26309;50.924;4.754;2023-12-22T11:38:45;10.90;99.90
40600;DHT22;26309;50.924;4.754;2023-12-22T11:41:14;10.90;99.90
40600;DHT22;26309;50.924;4.754;2023-12-22T11:43:44;10.90;99.90
40600;DHT22;26309;50.924;4.754;2023-12-22T11:46:10;10.80;99.90
40600;DHT22;26309;50.924;4.754;2023-12-22T11:48:37;10.60;99.90
40600;DHT22;26309;50.924;4.754;2023-12-22T11:51:12;10.60;99.90
40600;DHT22;26309;50.924;4.754;2023-12-22T11:53:39;10.60;99.90
40600;DHT22;26309;50.924;4.754;2023-12-22T11:56:06;10.70;99.90
40600;DHT22;26309;50.924;4.754;2023-12-22T11:58:36;10.70;99.90
40600;DHT22;26309;50.924;4.754;2023-12-22T12:01:03;10.80;99.90
40600;DHT22;26309;50.924;4.754;2023-12-22T12:03:31;10.70;99.90
40600;DHT22;26309;50.924;4.754;2023-12-22T12:08:47;10.90;99.90
40600;DHT22;26309;50.924;4.754;2023-12-22T12:11:14;11.00;99.90
40600;DHT22;26309;50.924;4.754;2023-12-22T12:13:44;11.10;99.90
40600;DHT22;26309;50.924;4.754;2023-12-22T12:16:11;11.10;99.90
40600;DHT22;26309;50.924;4.754;2023-12-22T12:18:38;11.10;99.90
40600;DHT22;26309;50.924;4.754;2023-12-22T12:21:06;11.20;99.90
40600;DHT22;26309;50.924;4.754;2023-12-22T12:23:33;11.20;99.90
40600;DHT22;26309;50.924;4.754;2023-12-22T12:25:59;11.20;99.90
40600;DHT22;26309;50.924;4.754;2023-12-22T12:28:29;11.20;99.90
40600;DHT22;26309;50.924;4.754;2023-12-22T12:30:59;11.20;99.90
40600;DHT22;26309;50.924;4.754;2023-12-22T12:33:25;11.30;99.90
40600;DHT22;26309;50.924;4.754;2023-12-22T12:35:54;11.40;99.90
40600;DHT22;26309;50.924;4.754;2023-12-22T12:38:23;11.40;99.90
40600;DHT22;26309;50.924;4.754;2023-12-22T12:40:51;11.40;99.90
40600;DHT22;26309;50.924;4.754;2023-12-22T12:43:17;11.40;99.90
40600;DHT22;26309;50.924;4.754;2023-12-22T12:45:44;11.60;99.90
40600;DHT22;26309;50.924;4.754;2023-12-22T12:48:10;11.60;99.90
40600;DHT22;26309;50.924;4.754;2023-12-22T12:50:37;11.50;99.90
40600;DHT22;26309;50.924;4.754;2023-12-22T12:53:02;11.40;99.90
40600;DHT22;26309;50.924;4.754;2023-12-22T12:55:29;11.40;99.90
40600;DHT22;26309;50.924;4.754;2023-12-22T12:57:55;11.40;99.90
40600;DHT22;26309;50.924;4.754;2023-12-22T13:00:29;11.40;99.90
40600;DHT22;26309;50.924;4.754;2023-12-22T13:03:15;11.40;99.90
40600;DHT22;26309;50.924;4.754;2023-12-22T13:05:41;11.40;99.90
40600;DHT22;26309;50.924;4.754;2023-12-22T13:08:11;11.30;99.90
40600;DHT22;26309;50.924;4.754;2023-12-22T13:10:37;11.20;99.90
40600;DHT22;26309;50.924;4.754;2023-12-22T13:13:03;11.20;99.90
40600;DHT22;26309;50.924;4.754;2023-12-22T13:15:30;11.20;99.90
40600;DHT22;26309;50.924;4.754;2023-12-22T13:17:56;11.20;99.90
40600;DHT22;26309;50.924;4.754;2023-12-22T13:20:22;11.10;99.90
40600;DHT22;26309;50.924;4.754;2023-12-22T13:22:48;11.30;99.90
40600;DHT22;26309;50.924;4.754;2023-12-22T13:25:15;11.30;99.90
40600;DHT22;26309;50.924;4.754;2023-12-22T13:27:48;11.40;99.90
40600;DHT22;26309;50.924;4.754;2023-12-22T13:30:15;11.40;99.90
40600;DHT22;26309;50.924;4.754;2023-12-22T13:32:41;11.50;99.90
40600;DHT22;26309;50.924;4.754;2023-12-22T13:35:07;11.60;99.90
40600;DHT22;26309;50.924;4.754;2023-12-22T13:37:34;11.50;99.90
40600;DHT22;26309;50.924;4.754;2023-12-22T13:40:00;11.50;99.90
40600;DHT22;26309;50.924;4.754;2023-12-22T13:42:26;11.40;99.90
40600;DHT22;26309;50.924;4.754;2023-12-22T13:44:52;11.40;99.90
40600;DHT22;26309;50.924;4.754;2023-12-22T13:47:18;11.30;99.90
40600;DHT22;26309;50.924;4.754;2023-12-22T13:49:48;11.20;99.90
40600;DHT22;26309;50.924;4.754;2023-12-22T13:52:31;11.20;99.90
40600;DHT22;26309;50.924;4.754;2023-12-22T13:55:13;11.10;99.90
40600;DHT22;26309;50.924;4.754;2023-12-22T13:57:40;11.00;99.90
40600;DHT22;26309;50.924;4.754;2023-12-22T14:02:48;10.80;99.90
40600;DHT22;26309;50.924;4.754;2023-12-22T14:05:20;10.70;99.90
40600;DHT22;26309;50.924;4.754;2023-12-22T14:07:46;10.70;99.90
40600;DHT22;26309;50.924;4.754;2023-12-22T14:10:12;10.70;99.90
40600;DHT22;26309;50.924;4.754;2023-12-22T14:12:39;10.80;99.90
40600;DHT22;26309;50.924;4.754;2023-12-22T14:15:08;10.80;99.90
40600;DHT22;26309;50.924;4.754;2023-12-22T14:17:34;10.80;99.90
40600;DHT22;26309;50.924;4.754;2023-12-22T14:20:02;10.80;99.90
40600;DHT22;26309;50.924;4.754;2023-12-22T14:22:30;10.80;99.90
40600;DHT22;26309;50.924;4.754;2023-12-22T14:24:57;10.80;99.90
40600;DHT22;26309;50.924;4.754;2023-12-22T14:27:23;10.90;99.90
40600;DHT22;26309;50.924;4.754;2023-12-22T14:29:49;10.90;99.90
40600;DHT22;26309;50.924;4.754;2023-12-22T14:32:15;10.90;99.90
40600;DHT22;26309;50.924;4.754;2023-12-22T14:34:45;10.90;99.90
40600;DHT22;26309;50.924;4.754;2023-12-22T14:37:11;10.90;99.90
40600;DHT22;26309;50.924;4.754;2023-12-22T14:39:37;10.90;99.90
40600;DHT22;26309;50.924;4.754;2023-12-22T14:42:03;11.00;99.90
40600;DHT22;26309;50.924;4.754;2023-12-22T14:44:29;11.00;99.90
40600;DHT22;26309;50.924;4.754;2023-12-22T14:46:55;11.10;99.90
40600;DHT22;26309;50.924;4.754;2023-12-22T14:49:21;11.10;99.90
40600;DHT22;26309;50.924;4.754;2023-12-22T14:51:47;11.20;99.90
40600;DHT22;26309;50.924;4.754;2023-12-22T14:54:17;11.20;99.90
40600;DHT22;26309;50.924;4.754;2023-12-22T14:56:43;11.30;99.90
40600;DHT22;26309;50.924;4.754;2023-12-22T14:59:12;11.30;99.90
40600;DHT22;26309;50.924;4.754;2023-12-22T15:01:41;11.30;99.90
40600;DHT22;26309;50.924;4.754;2023-12-22T15:04:07;11.30;99.90
40600;DHT22;26309;50.924;4.754;2023-12-22T15:06:40;11.30;99.90
40600;DHT22;26309;50.924;4.754;2023-12-22T15:09:09;11.30;99.90
40600;DHT22;26309;50.924;4.754;2023-12-22T15:11:41;11.40;99.90
40600;DHT22;26309;50.924;4.754;2023-12-22T15:14:07;11.40;99.90
40600;DHT22;26309;50.924;4.754;2023-12-22T15:16:33;11.40;99.90
40600;DHT22;26309;50.924;4.754;2023-12-22T15:18:59;11.50;99.90
40600;DHT22;26309;50.924;4.754;2023-12-22T15:21:25;11.50;99.90
40600;DHT22;26309;50.924;4.754;2023-12-22T15:23:50;11.60;99.90
40600;DHT22;26309;50.924;4.754;2023-12-22T15:26:23;11.60;99.90
40600;DHT22;26309;50.924;4.754;2023-12-22T15:28:51;11.60;99.90
40600;DHT22;26309;50.924;4.754;2023-12-22T15:31:17;11.60;99.90
40600;DHT22;26309;50.924;4.754;2023-12-22T15:33:43;11.60;99.90
40600;DHT22;26309;50.924;4.754;2023-12-22T15:36:09;11.70;99.90
40600;DHT22;26309;50.924;4.754;2023-12-22T15:38:35;11.70;99.90
40600;DHT22;26309;50.924;4.754;2023-12-22T15:41:01;11.70;99.90
40600;DHT22;26309;50.924;4.754;2023-12-22T15:43:27;11.70;99.90
40600;DHT22;26309;50.924;4.754;2023-12-22T15:45:53;11.60;99.90
40600;DHT22;26309;50.924;4.754;2023-12-22T15:48:19;11.70;99.90
40600;DHT22;26309;50.924;4.754;2023-12-22T15:50:45;11.70;99.90